createdAt,value
2023-02-27T00:01:35.662Z,98355.72
2023-02-27T00:03:38.441Z,98364.94
2023-02-27T00:05:43.753Z,98354.69
2023-02-27T00:07:46.442Z,98349.00
2023-02-27T00:09:49.042Z,98352.78
2023-02-27T00:11:51.523Z,98353.91
2023-02-27T00:13:54.110Z,98336.09
2023-02-27T00:15:57.331Z,98335.38
2023-02-27T00:18:00.433Z,98350.03
2023-02-27T00:20:04.200Z,98345.16
2023-02-27T00:22:06.920Z,98345.66
2023-02-27T00:24:09.394Z,98347.34
2023-02-27T00:26:11.890Z,98348.97
2023-02-27T00:28:14.451Z,98336.00
2023-02-27T00:30:17.080Z,98342.22
2023-02-27T00:32:20.146Z,98344.63
2023-02-27T00:34:22.659Z,98341.72
2023-02-27T00:36:25.629Z,98340.09
2023-02-27T00:38:28.806Z,98340.59
2023-02-27T00:40:32.231Z,98338.69
2023-02-27T00:42:34.944Z,98329.50
2023-02-27T00:44:39.213Z,98337.63
2023-02-27T00:46:41.827Z,98329.72
2023-02-27T00:48:44.424Z,98333.00
2023-02-27T00:50:47.228Z,98334.91
2023-02-27T00:52:49.712Z,98338.63
2023-02-27T00:54:52.212Z,98338.13
2023-02-27T00:56:55.244Z,98342.16
2023-02-27T00:58:57.727Z,98342.78
2023-02-27T01:01:01.060Z,98347.34
2023-02-27T01:03:04.529Z,98343.53
2023-02-27T01:05:07.286Z,98339.75
2023-02-27T01:07:10.708Z,98338.13
2023-02-27T01:09:13.395Z,98328.91
2023-02-27T01:11:15.911Z,98335.44
2023-02-27T01:13:18.418Z,98346.47
2023-02-27T01:15:21.014Z,98338.41
2023-02-27T01:17:23.652Z,98343.25
2023-02-27T01:19:26.281Z,98346.19
2023-02-27T01:21:29.067Z,98341.84
2023-02-27T01:23:31.712Z,98331.56
2023-02-27T01:25:34.872Z,98340.53
2023-02-27T01:27:37.541Z,98335.38
2023-02-27T01:29:41.571Z,98334.31
2023-02-27T01:31:44.239Z,98326.94
2023-02-27T01:33:49.687Z,98327.19
2023-02-27T01:35:52.769Z,98318.34
2023-02-27T01:37:55.364Z,98330.47
2023-02-27T01:39:57.870Z,98327.78
2023-02-27T01:42:01.265Z,98332.66
2023-02-27T01:44:07.760Z,98322.91
2023-02-27T01:46:10.273Z,98320.97
2023-02-27T01:48:18.551Z,98308.75
2023-02-27T01:50:21.414Z,98306.06
2023-02-27T01:52:24.041Z,98313.91
2023-02-27T01:54:27.093Z,98316.28
2023-02-27T01:56:31.992Z,98305.47
2023-02-27T01:58:35.269Z,98315.69
2023-02-27T02:00:38.298Z,98329.47
2023-02-27T02:02:46.411Z,98323.25
2023-02-27T02:04:51.131Z,98330.00
2023-02-27T02:07:15.826Z,98332.25
2023-02-27T02:09:20.406Z,98332.19
2023-02-27T02:11:25.496Z,98344.91
2023-02-27T02:13:28.333Z,98340.00
2023-02-27T02:16:14.499Z,98326.53
2023-02-27T02:18:40.007Z,98327.28
2023-02-27T02:21:04.045Z,98324.28
2023-02-27T02:23:41.603Z,98321.06
2023-02-27T02:26:11.367Z,98320.09
2023-02-27T02:28:52.256Z,98315.22
2023-02-27T02:31:22.491Z,98321.69
2023-02-27T02:33:39.972Z,98322.00
2023-02-27T02:35:57.329Z,98321.19
2023-02-27T02:38:38.519Z,98306.13
2023-02-27T02:41:02.265Z,98297.03
2023-02-27T02:43:14.599Z,98302.78
2023-02-27T02:45:39.757Z,98310.97
2023-02-27T02:48:13.657Z,98294.50
2023-02-27T02:50:31.285Z,98295.31
2023-02-27T02:52:40.176Z,98287.50
2023-02-27T02:54:49.692Z,98290.72
2023-02-27T02:57:06.353Z,98293.13
2023-02-27T02:59:21.091Z,98292.31
2023-02-27T03:01:32.275Z,98291.47
2023-02-27T03:03:40.518Z,98292.25
2023-02-27T03:05:53.453Z,98283.06
2023-02-27T03:08:11.833Z,98285.25
2023-02-27T03:10:20.333Z,98292.50
2023-02-27T03:12:25.164Z,98301.13
2023-02-27T03:15:02.922Z,98293.53
2023-02-27T03:17:15.486Z,98295.41
2023-02-27T03:19:26.722Z,98288.63
2023-02-27T03:21:59.793Z,98286.50
2023-02-27T03:24:06.936Z,98289.00
2023-02-27T03:26:11.633Z,98287.81
2023-02-27T03:28:22.265Z,98288.63
2023-02-27T03:30:41.557Z,98283.19
2023-02-27T03:33:00.097Z,98294.25
2023-02-27T03:35:04.918Z,98284.53
2023-02-27T03:37:23.898Z,98294.25
2023-02-27T03:39:50.513Z,98288.84
2023-02-27T03:42:04.111Z,98287.75
2023-02-27T03:44:24.136Z,98283.19
2023-02-27T03:46:28.296Z,98270.50
2023-02-27T03:48:31.571Z,98279.34
2023-02-27T03:50:37.092Z,98274.22
2023-02-27T03:52:40.551Z,98282.06
2023-02-27T03:54:51.754Z,98279.34
2023-02-27T03:57:01.869Z,98285.00
2023-02-27T03:59:05.094Z,98288.19
2023-02-27T04:01:08.012Z,98283.88
2023-02-27T04:03:11.889Z,98285.00
2023-02-27T04:05:14.511Z,98284.41
2023-02-27T04:07:47.197Z,98289.53
2023-02-27T04:10:11.581Z,98287.31
2023-02-27T04:12:36.169Z,98284.94
2023-02-27T04:15:08.862Z,98275.50
2023-02-27T04:17:37.332Z,98281.47
2023-02-27T04:20:23.244Z,98280.06
2023-02-27T04:22:39.938Z,98271.09
2023-02-27T04:24:52.499Z,98274.09
2023-02-27T04:27:33.407Z,98288.16
2023-02-27T04:29:44.530Z,98278.06
2023-02-27T04:31:49.766Z,98275.88
2023-02-27T04:34:01.277Z,98297.22
2023-02-27T04:36:13.140Z,98278.28
2023-02-27T04:38:34.027Z,98285.81
2023-02-27T04:40:42.979Z,98273.88
2023-02-27T04:42:50.879Z,98276.03
2023-02-27T04:44:57.660Z,98279.81
2023-02-27T04:47:02.205Z,98271.91
2023-02-27T04:49:14.853Z,98283.81
2023-02-27T04:51:22.982Z,98289.56
2023-02-27T04:53:35.280Z,98304.16
2023-02-27T04:55:45.175Z,98361.00
2023-02-27T04:57:53.674Z,98369.09
2023-02-27T04:59:58.227Z,98354.81
2023-02-27T05:02:18.040Z,98355.84
2023-02-27T05:04:23.007Z,98357.59
2023-02-27T05:06:31.958Z,98352.84
2023-02-27T05:09:28.518Z,98360.75
2023-02-27T05:11:44.286Z,98351.31
2023-02-27T05:13:55.356Z,98348.13
2023-02-27T05:16:28.165Z,98362.28
2023-02-27T05:18:30.989Z,98348.75
2023-02-27T05:20:52.656Z,98369.31
2023-02-27T05:23:16.418Z,98363.16
2023-02-27T05:25:22.759Z,98372.81
2023-02-27T05:27:48.430Z,98371.44
2023-02-27T05:29:53.735Z,98379.81
2023-02-27T05:32:07.470Z,98379.84
2023-02-27T05:34:20.994Z,98393.31
2023-02-27T05:36:32.007Z,98394.69
2023-02-27T05:38:39.950Z,98431.44
2023-02-27T05:40:54.323Z,98455.25
2023-02-27T05:43:07.726Z,98414.28
2023-02-27T05:45:15.385Z,98457.56
2023-02-27T05:47:22.867Z,98463.56
2023-02-27T05:49:31.670Z,98436.59
2023-02-27T05:51:37.932Z,98435.50
2023-02-27T05:53:45.796Z,98436.28
2023-02-27T05:55:54.573Z,98441.16
2023-02-27T05:58:07.172Z,98451.41
2023-02-27T06:00:15.711Z,98473.75
2023-02-27T06:02:18.371Z,98452.13
2023-02-27T06:04:20.932Z,98435.63
2023-02-27T06:06:23.763Z,98512.56
2023-02-27T06:08:27.130Z,98506.41
2023-02-27T06:10:29.930Z,98503.19
2023-02-27T06:12:32.498Z,98462.44
2023-02-27T06:14:35.053Z,98492.13
2023-02-27T06:16:39.257Z,98467.22
2023-02-27T06:18:41.790Z,98477.47
2023-02-27T06:20:45.388Z,98468.53
2023-02-27T06:22:48.054Z,98480.44
2023-02-27T06:24:50.572Z,98465.56
2023-02-27T06:26:53.524Z,98483.06
2023-02-27T06:28:56.211Z,98469.25
2023-02-27T06:30:58.778Z,98482.19
2023-02-27T06:33:01.644Z,98492.47
2023-02-27T06:35:04.658Z,98497.88
2023-02-27T06:37:07.204Z,98515.13
2023-02-27T06:39:09.774Z,98496.53
2023-02-27T06:41:12.378Z,98500.53
2023-02-27T06:43:15.138Z,98485.09
2023-02-27T06:45:19.318Z,98497.22
2023-02-27T06:47:21.903Z,98512.91
2023-02-27T06:49:24.398Z,98512.34
2023-02-27T06:51:26.999Z,98513.72
2023-02-27T06:53:29.758Z,98500.47
2023-02-27T06:55:32.258Z,98511.53
2023-02-27T06:57:35.186Z,98518.81
2023-02-27T06:59:37.801Z,98518.00
2023-02-27T07:01:40.408Z,98511.78
2023-02-27T07:03:44.264Z,98518.94
2023-02-27T07:05:46.880Z,98541.91
2023-02-27T07:07:49.441Z,98525.34
2023-02-27T07:09:51.905Z,98528.41
2023-02-27T07:11:54.662Z,98515.91
2023-02-27T07:13:57.338Z,98521.75
2023-02-27T07:15:59.847Z,98527.94
2023-02-27T07:18:02.714Z,98535.91
2023-02-27T07:20:10.858Z,98527.53
2023-02-27T07:22:13.529Z,98517.91
2023-02-27T07:24:16.601Z,98516.59
2023-02-27T07:26:19.086Z,98509.34
2023-02-27T07:28:21.625Z,98540.28
2023-02-27T07:30:24.318Z,98538.91
2023-02-27T07:32:27.667Z,98538.31
2023-02-27T07:34:30.390Z,98519.28
2023-02-27T07:36:34.373Z,98550.25
2023-02-27T07:38:37.013Z,98544.53
2023-02-27T07:40:39.621Z,98550.88
2023-02-27T07:42:42.775Z,98545.56
2023-02-27T07:44:45.905Z,98551.94
2023-02-27T07:46:48.824Z,98558.88
2023-02-27T07:48:51.510Z,98553.47
2023-02-27T07:50:53.989Z,98558.34
2023-02-27T07:52:56.798Z,98579.97
2023-02-27T07:54:59.518Z,98559.09
2023-02-27T07:57:02.124Z,98571.75
2023-02-27T07:59:06.718Z,98581.59
2023-02-27T08:01:11.322Z,98583.59
2023-02-27T08:03:14.189Z,98571.63
2023-02-27T08:05:16.738Z,98594.50
2023-02-27T08:07:19.234Z,98592.72
2023-02-27T08:09:21.914Z,98563.25
2023-02-27T08:11:24.573Z,98582.19
2023-02-27T08:13:55.847Z,98593.22
2023-02-27T08:15:50.532Z,98601.03
2023-02-27T08:17:53.077Z,98582.19
2023-02-27T08:19:55.584Z,98586.53
2023-02-27T08:21:58.087Z,98632.06
2023-02-27T08:24:00.648Z,98610.25
2023-02-27T08:26:03.346Z,98585.34
2023-02-27T08:28:05.872Z,98604.88
2023-02-27T08:30:10.902Z,98600.06
2023-02-27T08:32:13.852Z,98575.44
2023-02-27T08:34:16.853Z,98595.66
2023-02-27T08:36:19.542Z,98644.44
2023-02-27T08:38:22.141Z,98634.94
2023-02-27T08:40:24.724Z,98597.34
2023-02-27T08:42:27.728Z,98621.41
2023-02-27T08:44:30.340Z,98612.94
2023-02-27T08:46:32.951Z,98622.59
2023-02-27T08:48:35.489Z,98621.63
2023-02-27T08:50:38.033Z,98619.72
2023-02-27T08:52:40.627Z,98660.72
2023-02-27T08:54:43.282Z,98650.47
2023-02-27T08:56:45.895Z,98661.31
2023-02-27T08:58:48.432Z,98632.91
2023-02-27T09:00:51.055Z,98647.63
2023-02-27T09:02:53.854Z,98632.81
2023-02-27T09:04:56.504Z,98632.03
2023-02-27T09:06:59.099Z,98635.06
2023-02-27T09:09:02.687Z,98658.06
2023-02-27T09:11:05.765Z,98669.28
2023-02-27T09:13:08.296Z,98642.56
2023-02-27T09:15:11.656Z,98671.03
2023-02-27T09:17:14.111Z,98675.06
2023-02-27T09:19:16.751Z,98677.56
2023-02-27T09:21:19.334Z,98671.81
2023-02-27T09:23:22.126Z,98693.28
2023-02-27T09:25:24.924Z,98690.63
2023-02-27T09:27:27.436Z,98681.38
2023-02-27T09:29:30.130Z,98711.03
2023-02-27T09:31:33.593Z,98680.06
2023-02-27T09:33:37.508Z,98682.81
2023-02-27T09:35:40.184Z,98704.94
2023-02-27T09:37:44.086Z,98708.41
2023-02-27T09:39:47.413Z,98688.22
2023-02-27T09:42:00.330Z,98700.19
2023-02-27T09:44:03.311Z,98699.13
2023-02-27T09:46:08.097Z,98702.63
2023-02-27T09:48:39.299Z,98702.00
2023-02-27T09:50:45.709Z,98669.59
2023-02-27T09:52:48.365Z,98698.59
2023-02-27T09:54:51.289Z,98718.97
2023-02-27T09:57:04.244Z,98710.28
2023-02-27T09:59:26.840Z,98686.13
2023-02-27T10:01:41.660Z,98694.25
2023-02-27T10:03:56.203Z,98722.44
2023-02-27T10:06:22.355Z,98722.53
2023-02-27T10:08:52.461Z,98734.00
2023-02-27T10:11:08.789Z,98746.53
2023-02-27T10:13:36.039Z,98702.69
2023-02-27T10:15:43.615Z,98742.78
2023-02-27T10:17:51.401Z,98737.94
2023-02-27T10:19:55.332Z,98748.19
2023-02-27T10:22:02.224Z,98723.47
2023-02-27T10:24:17.446Z,98730.94
2023-02-27T10:26:26.937Z,98733.28
2023-02-27T10:28:30.058Z,98751.97
2023-02-27T10:30:34.944Z,98754.94
2023-02-27T10:32:39.898Z,98745.47
2023-02-27T10:34:45.787Z,98767.72
2023-02-27T10:36:48.920Z,98744.69
2023-02-27T10:38:56.440Z,98757.59
2023-02-27T10:41:00.508Z,98736.41
2023-02-27T10:43:06.417Z,98740.25
2023-02-27T10:45:16.597Z,98718.63
2023-02-27T10:47:25.748Z,98729.22
2023-02-27T10:49:32.501Z,98739.63
2023-02-27T10:51:38.558Z,98736.50
2023-02-27T10:53:41.531Z,98746.59
2023-02-27T10:55:48.628Z,98768.00
2023-02-27T10:57:52.477Z,98760.41
2023-02-27T11:00:01.087Z,98749.88
2023-02-27T11:02:20.990Z,98764.16
2023-02-27T11:04:32.598Z,98770.94
2023-02-27T11:06:35.949Z,98746.84
2023-02-27T11:08:38.611Z,98759.25
2023-02-27T11:10:58.755Z,98761.69
2023-02-27T11:13:07.420Z,98760.91
2023-02-27T11:15:15.842Z,98758.50
2023-02-27T11:17:25.150Z,98753.63
2023-02-27T11:19:36.733Z,98761.13
2023-02-27T11:21:39.254Z,98755.72
2023-02-27T11:23:58.337Z,98763.59
2023-02-27T11:26:19.174Z,98769.84
2023-02-27T11:28:23.326Z,98755.06
2023-02-27T11:30:31.940Z,98762.19
2023-02-27T11:32:42.982Z,98757.53
2023-02-27T11:34:51.727Z,98777.69
2023-02-27T11:36:58.302Z,98770.34
2023-02-27T11:39:00.888Z,98760.59
2023-02-27T11:41:09.280Z,98785.53
2023-02-27T11:43:21.969Z,98768.53
2023-02-27T11:46:14.612Z,98782.09
2023-02-27T11:47:57.280Z,98789.41
2023-02-27T11:50:20.497Z,98801.31
2023-02-27T11:52:49.493Z,98787.78
2023-02-27T11:54:57.628Z,98785.38
2023-02-27T11:57:28.874Z,98789.22
2023-02-27T11:59:40.683Z,98794.94
2023-02-27T12:01:57.357Z,98803.34
2023-02-27T12:04:16.768Z,98803.91
2023-02-27T12:06:30.464Z,98792.56
2023-02-27T12:08:46.325Z,98788.47
2023-02-27T12:11:18.536Z,98787.13
2023-02-27T12:13:27.674Z,98781.22
2023-02-27T12:15:49.132Z,98781.75
2023-02-27T12:18:16.439Z,98783.41
2023-02-27T12:20:30.105Z,98772.28
2023-02-27T12:22:37.622Z,98789.31
2023-02-27T12:24:48.438Z,98803.94
2023-02-27T12:27:03.266Z,98822.84
2023-02-27T12:29:14.762Z,98779.06
2023-02-27T12:31:30.706Z,98783.34
2023-02-27T12:33:50.122Z,98802.78
2023-02-27T12:36:01.762Z,98787.31
2023-02-27T12:38:07.217Z,98795.09
2023-02-27T12:40:18.287Z,98815.38
2023-02-27T12:42:24.673Z,98801.00
2023-02-27T12:45:00.036Z,98806.19
2023-02-27T12:47:11.320Z,98803.81
2023-02-27T12:49:37.155Z,98805.75
2023-02-27T12:51:54.670Z,98814.63
2023-02-27T12:54:13.638Z,98815.13
2023-02-27T12:56:25.144Z,98794.22
2023-02-27T12:58:48.825Z,98810.13
2023-02-27T13:01:00.095Z,98795.41
2023-02-27T13:03:13.085Z,98798.56
2023-02-27T13:05:50.994Z,98799.59
2023-02-27T13:08:09.799Z,98793.13
2023-02-27T13:10:22.516Z,98788.81
2023-02-27T13:12:37.794Z,98795.75
2023-02-27T13:15:00.054Z,98793.13
2023-02-27T13:17:11.951Z,98803.72
2023-02-27T13:19:42.910Z,98807.88
2023-02-27T13:21:55.897Z,98815.16
2023-02-27T13:24:17.145Z,98797.00
2023-02-27T13:26:25.990Z,98806.19
2023-02-27T13:28:29.823Z,98810.44
2023-02-27T13:31:01.065Z,98801.63
2023-02-27T13:33:25.688Z,98815.47
2023-02-27T13:35:36.345Z,98829.59
2023-02-27T13:38:02.771Z,98823.09
2023-02-27T13:40:31.097Z,98829.88
2023-02-27T13:42:35.107Z,98833.13
2023-02-27T13:44:41.510Z,98825.03
2023-02-27T13:46:44.173Z,98827.19
2023-02-27T13:48:55.045Z,98822.06
2023-02-27T13:50:57.781Z,98829.09
2023-02-27T13:53:09.667Z,98822.63
2023-02-27T13:55:37.152Z,98838.81
2023-02-27T13:57:40.039Z,98826.38
2023-02-27T13:59:52.295Z,98835.84
2023-02-27T14:02:12.287Z,98838.25
2023-02-27T14:04:18.459Z,98837.72
2023-02-27T14:06:23.581Z,98838.00
2023-02-27T14:08:29.758Z,98844.75
2023-02-27T14:10:33.138Z,98840.41
2023-02-27T14:12:45.964Z,98839.03
2023-02-27T14:14:50.678Z,98839.03
2023-02-27T14:16:53.454Z,98842.53
2023-02-27T14:19:00.456Z,98834.97
2023-02-27T14:21:02.999Z,98834.69
2023-02-27T14:23:17.473Z,98845.78
2023-02-27T14:25:35.931Z,98857.63
2023-02-27T14:27:44.191Z,98845.47
2023-02-27T14:29:48.752Z,98831.66
2023-02-27T14:31:53.189Z,98855.69
2023-02-27T14:33:59.026Z,98855.38
2023-02-27T14:36:08.106Z,98851.34
2023-02-27T14:38:15.659Z,98844.59
2023-02-27T14:40:30.029Z,98846.47
2023-02-27T14:42:35.855Z,98854.28
2023-02-27T14:44:49.268Z,98854.81
2023-02-27T14:46:55.011Z,98848.31
2023-02-27T14:49:17.413Z,98847.81
2023-02-27T14:51:20.873Z,98846.19
2023-02-27T14:53:27.143Z,98836.72
2023-02-27T14:55:38.756Z,98848.06
2023-02-27T14:57:41.595Z,98851.56
2023-02-27T14:59:46.829Z,98836.19
2023-02-27T15:01:49.664Z,98842.66
2023-02-27T15:03:54.955Z,98846.91
2023-02-27T15:06:01.259Z,98835.59
2023-02-27T15:08:04.248Z,98852.88
2023-02-27T15:10:09.868Z,98840.69
2023-02-27T15:12:18.707Z,98836.13
2023-02-27T15:14:30.354Z,98837.97
2023-02-27T15:16:37.555Z,98864.94
2023-02-27T15:18:40.944Z,98857.13
2023-02-27T15:20:43.651Z,98860.38
2023-02-27T15:22:46.233Z,98852.00
2023-02-27T15:24:50.513Z,98855.50
2023-02-27T15:27:06.445Z,98853.66
2023-02-27T15:29:09.209Z,98851.19
2023-02-27T15:31:19.994Z,98850.41
2023-02-27T15:33:32.162Z,98852.00
2023-02-27T15:35:38.139Z,98851.75
2023-02-27T15:37:52.920Z,98844.47
2023-02-27T15:39:56.811Z,98856.88
2023-02-27T15:42:04.822Z,98863.59
2023-02-27T15:44:07.930Z,98853.34
2023-02-27T15:46:10.555Z,98868.47
2023-02-27T15:48:15.662Z,98857.69
2023-02-27T15:50:18.232Z,98874.13
2023-02-27T15:52:23.468Z,98872.53
2023-02-27T15:54:26.653Z,98867.16
2023-02-27T15:56:35.685Z,98861.75
2023-02-27T15:58:48.854Z,98872.53
2023-02-27T16:01:01.177Z,98872.25
2023-02-27T16:03:07.390Z,98866.91
2023-02-27T16:05:23.360Z,98881.69
2023-02-27T16:07:29.773Z,98881.44
2023-02-27T16:09:35.683Z,98875.50
2023-02-27T16:11:38.232Z,98864.13
2023-02-27T16:13:42.010Z,98863.38
2023-02-27T16:15:44.798Z,98854.72
2023-02-27T16:18:16.750Z,98861.22
2023-02-27T16:20:36.539Z,98852.59
2023-02-27T16:23:06.989Z,98860.66
2023-02-27T16:25:11.380Z,98860.97
2023-02-27T16:27:26.980Z,98861.75
2023-02-27T16:29:33.775Z,98855.81
2023-02-27T16:31:41.122Z,98848.50
2023-02-27T16:33:43.922Z,98852.81
2023-02-27T16:35:46.442Z,98851.47
2023-02-27T16:37:50.580Z,98848.28
2023-02-27T16:39:54.591Z,98853.66
2023-02-27T16:41:59.829Z,98840.19
2023-02-27T16:44:02.339Z,98852.03
2023-02-27T16:46:05.060Z,98842.06
2023-02-27T16:48:07.610Z,98845.56
2023-02-27T16:50:21.777Z,98840.97
2023-02-27T16:52:24.253Z,98849.06
2023-02-27T16:54:26.771Z,98840.44
2023-02-27T16:56:38.044Z,98835.34
2023-02-27T16:58:41.149Z,98842.88
2023-02-27T17:00:43.729Z,98848.53
2023-02-27T17:02:48.282Z,98841.78
2023-02-27T17:04:52.368Z,98841.25
2023-02-27T17:06:56.919Z,98852.88
2023-02-27T17:08:59.532Z,98850.13
2023-02-27T17:11:04.103Z,98843.91
2023-02-27T17:13:07.067Z,98839.88
2023-02-27T17:15:10.048Z,98839.06
2023-02-27T17:17:12.642Z,98843.91
2023-02-27T17:19:16.089Z,98837.97
2023-02-27T17:21:18.682Z,98834.72
2023-02-27T17:23:21.185Z,98844.44
2023-02-27T17:25:23.906Z,98834.22
2023-02-27T17:27:26.547Z,98835.84
2023-02-27T17:29:29.331Z,98839.06
2023-02-27T17:31:32.305Z,98845.25
2023-02-27T17:33:34.970Z,98847.41
2023-02-27T17:35:37.524Z,98851.69
2023-02-27T17:37:40.226Z,98854.94
2023-02-27T17:39:42.704Z,98849.81
2023-02-27T17:41:45.531Z,98847.94
2023-02-27T17:43:52.814Z,98851.69
2023-02-27T17:45:55.348Z,98843.88
2023-02-27T17:47:57.916Z,98848.97
2023-02-27T17:50:00.478Z,98847.91
2023-02-27T17:52:03.676Z,98842.75
2023-02-27T17:54:06.911Z,98838.97
2023-02-27T17:56:10.974Z,98837.91
2023-02-27T17:58:13.482Z,98836.28
2023-02-27T18:00:16.411Z,98846.81
2023-02-27T18:02:19.465Z,98835.72
2023-02-27T18:04:21.980Z,98835.13
2023-02-27T18:06:25.014Z,98828.41
2023-02-27T18:08:28.278Z,98834.63
2023-02-27T18:10:30.906Z,98823.84
2023-02-27T18:12:33.457Z,98823.84
2023-02-27T18:14:36.470Z,98821.09
2023-02-27T18:16:39.061Z,98810.84
2023-02-27T18:18:42.988Z,98817.03
2023-02-27T18:20:45.944Z,98823.75
2023-02-27T18:22:48.394Z,98823.50
2023-02-27T18:24:55.110Z,98827.25
2023-02-27T18:26:57.923Z,98820.50
2023-02-27T18:29:14.204Z,98824.53
2023-02-27T18:31:26.006Z,98822.41
2023-02-27T18:33:28.514Z,98818.34
2023-02-27T18:35:31.119Z,98815.94
2023-02-27T18:37:33.956Z,98819.94
2023-02-27T18:39:37.056Z,98821.84
2023-02-27T18:41:39.952Z,98828.28
2023-02-27T18:43:43.690Z,98839.84
2023-02-27T18:45:46.163Z,98816.16
2023-02-27T18:47:48.692Z,98798.38
2023-02-27T18:49:51.645Z,98806.97
2023-02-27T18:51:54.100Z,98813.69
2023-02-27T18:53:56.913Z,98825.81
2023-02-27T18:56:04.962Z,98830.63
2023-02-27T18:58:07.493Z,98816.94
2023-02-27T19:00:10.643Z,98823.41
2023-02-27T19:02:23.344Z,98825.03
2023-02-27T19:04:29.881Z,98803.97
2023-02-27T19:06:37.153Z,98815.31
2023-02-27T19:08:42.421Z,98809.13
2023-02-27T19:10:46.370Z,98809.91
2023-02-27T19:12:51.673Z,98798.00
2023-02-27T19:14:55.820Z,98796.16
2023-02-27T19:17:00.655Z,98800.22
2023-02-27T19:19:05.442Z,98794.50
2023-02-27T19:21:08.744Z,98792.38
2023-02-27T19:23:11.788Z,98802.34
2023-02-27T19:25:14.950Z,98783.19
2023-02-27T19:27:18.097Z,98791.28
2023-02-27T19:29:24.226Z,98781.34
2023-02-27T19:31:28.963Z,98794.81
2023-02-27T19:33:32.097Z,98780.25
2023-02-27T19:35:35.222Z,98791.81
2023-02-27T19:37:42.360Z,98783.47
2023-02-27T19:39:46.921Z,98785.31
2023-02-27T19:41:51.199Z,98790.72
2023-02-27T19:44:11.814Z,98779.13
2023-02-27T19:46:21.602Z,98784.00
2023-02-27T19:48:24.683Z,98778.56
2023-02-27T19:50:29.169Z,98778.56
2023-02-27T19:52:31.845Z,98780.47
2023-02-27T19:54:34.419Z,98781.78
2023-02-27T19:56:36.888Z,98786.38
2023-02-27T19:58:39.911Z,98788.25
2023-02-27T20:00:42.466Z,98804.91
2023-02-27T20:02:45.088Z,98794.94
2023-02-27T20:04:48.037Z,98792.81
2023-02-27T20:06:53.837Z,98776.41
2023-02-27T20:08:58.568Z,98776.16
2023-02-27T20:11:04.901Z,98790.06
2023-02-27T20:13:08.522Z,98778.75
2023-02-27T20:15:12.465Z,98781.38
2023-02-27T20:17:15.051Z,98795.69
2023-02-27T20:19:19.003Z,98777.41
2023-02-27T20:21:23.783Z,98795.19
2023-02-27T20:23:27.003Z,98784.13
2023-02-27T20:25:30.127Z,98773.34
2023-02-27T20:27:34.791Z,98771.44
2023-02-27T20:29:37.375Z,98781.16
2023-02-27T20:31:42.550Z,98786.47
2023-02-27T20:33:46.576Z,98785.69
2023-02-27T20:35:49.296Z,98770.09
2023-02-27T20:37:54.357Z,98798.09
2023-02-27T20:39:57.459Z,98783.56
2023-02-27T20:42:00.896Z,98778.19
2023-02-27T20:44:05.806Z,98774.16
2023-02-27T20:46:20.830Z,98787.88
2023-02-27T20:48:23.634Z,98789.22
2023-02-27T20:50:26.592Z,98792.16
2023-02-27T20:52:30.099Z,98790.28
2023-02-27T20:54:33.563Z,98784.84
2023-02-27T20:56:41.632Z,98792.38
2023-02-27T20:58:44.660Z,98796.91
2023-02-27T21:00:50.066Z,98802.53
2023-02-27T21:02:54.165Z,98788.53
2023-02-27T21:04:57.749Z,98786.41
2023-02-27T21:07:01.500Z,98786.13
2023-02-27T21:09:07.079Z,98784.72
2023-02-27T21:11:20.987Z,98785.28
2023-02-27T21:13:25.528Z,98782.88
2023-02-27T21:15:28.843Z,98769.88
2023-02-27T21:17:31.808Z,98771.22
2023-02-27T21:19:35.004Z,98784.13
2023-02-27T21:21:38.885Z,98782.50
2023-02-27T21:23:44.848Z,98773.34
2023-02-27T21:25:51.539Z,98775.81
2023-02-27T21:28:07.796Z,98774.19
2023-02-27T21:30:13.542Z,98771.50
2023-02-27T21:32:19.204Z,98757.97
2023-02-27T21:34:26.260Z,98771.72
2023-02-27T21:36:35.579Z,98761.75
2023-02-27T21:38:44.387Z,98766.06
2023-02-27T21:40:47.546Z,98751.50
2023-02-27T21:42:53.896Z,98770.56
2023-02-27T21:45:02.325Z,98761.06
2023-02-27T21:47:10.465Z,98770.75
2023-02-27T21:49:28.637Z,98778.81
2023-02-27T21:51:40.596Z,98769.16
2023-02-27T21:53:49.867Z,98762.69
2023-02-27T21:55:54.980Z,98762.44
2023-02-27T21:57:59.096Z,98764.06
2023-02-27T22:00:02.784Z,98778.31
2023-02-27T22:02:07.784Z,98781.84
2023-02-27T22:04:10.889Z,98765.91
2023-02-27T22:06:16.283Z,98773.69
2023-02-27T22:08:21.192Z,98769.63
2023-02-27T22:10:24.258Z,98778.25
2023-02-27T22:12:28.264Z,98810.81
2023-02-27T22:14:31.332Z,98780.38
2023-02-27T22:16:34.625Z,98783.34
2023-02-27T22:18:38.476Z,98773.16
2023-02-27T22:20:41.346Z,98788.75
2023-02-27T22:22:43.917Z,98773.91
2023-02-27T22:24:47.652Z,98781.16
2023-02-27T22:26:51.094Z,98780.34
2023-02-27T22:28:56.600Z,98787.84
2023-02-27T22:31:21.108Z,98775.16
2023-02-27T22:33:23.723Z,98793.75
2023-02-27T22:35:26.317Z,98784.88
2023-02-27T22:37:28.828Z,98766.34
2023-02-27T22:39:31.447Z,98774.38
2023-02-27T22:41:39.636Z,98780.81
2023-02-27T22:43:44.932Z,98775.38
2023-02-27T22:45:48.171Z,98776.44
2023-02-27T22:47:50.689Z,98792.81
2023-02-27T22:49:53.353Z,98799.28
2023-02-27T22:51:55.862Z,98794.16
2023-02-27T22:54:00.424Z,98797.59
2023-02-27T22:56:03.009Z,98785.47
2023-02-27T22:58:05.535Z,98760.16
2023-02-27T23:00:11.784Z,98785.41
2023-02-27T23:02:14.322Z,98781.13
2023-02-27T23:04:20.899Z,98791.53
2023-02-27T23:06:26.315Z,98780.22
2023-02-27T23:08:29.032Z,98791.50
2023-02-27T23:10:31.470Z,98786.91
2023-02-27T23:12:33.901Z,98792.06
2023-02-27T23:14:36.469Z,98784.22
2023-02-27T23:16:40.161Z,98774.22
2023-02-27T23:18:51.393Z,98789.84
2023-02-27T23:20:54.453Z,98779.38
2023-02-27T23:22:57.049Z,98787.66
2023-02-27T23:24:59.614Z,98797.38
2023-02-27T23:27:19.595Z,98769.41
2023-02-27T23:29:27.647Z,98776.69
2023-02-27T23:31:32.293Z,98770.50
2023-02-27T23:33:37.107Z,98777.19
2023-02-27T23:35:39.707Z,98768.28
2023-02-27T23:37:42.187Z,98781.16
2023-02-27T23:39:44.672Z,98772.25
2023-02-27T23:41:47.182Z,98764.19
2023-02-27T23:43:53.087Z,98782.44
2023-02-27T23:45:55.672Z,98775.94
2023-02-27T23:48:00.457Z,98787.75
2023-02-27T23:50:02.906Z,98780.19
2023-02-27T23:52:05.529Z,98768.88
2023-02-27T23:54:08.110Z,98772.06
2023-02-27T23:56:21.338Z,98775.25
2023-02-27T23:58:24.179Z,98782.16
